sensor_id;sensor_type;location;lat;lon;timestamp;P1;durP1;ratioP1;P2;durP2;ratioP2
19456;SDS011;9867;48.094;11.478;2022-09-01T00:02:30;17.10;;;15.60;;
19456;SDS011;9867;48.094;11.478;2022-09-01T00:04:58;15.43;;;13.77;;
19456;SDS011;9867;48.094;11.478;2022-09-01T00:07:28;15.80;;;14.30;;
19456;SDS011;9867;48.094;11.478;2022-09-01T00:09:58;15.37;;;13.97;;
19456;SDS011;9867;48.094;11.478;2022-09-01T00:12:27;15.80;;;14.23;;
19456;SDS011;9867;48.094;11.478;2022-09-01T00:14:56;16.47;;;15.07;;
19456;SDS011;9867;48.094;11.478;2022-09-01T00:17:25;17.73;;;16.13;;
19456;SDS011;9867;48.094;11.478;2022-09-01T00:19:53;16.80;;;15.20;;
19456;SDS011;9867;48.094;11.478;2022-09-01T00:22:21;17.73;;;16.07;;
19456;SDS011;9867;48.094;11.478;2022-09-01T00:24:49;17.23;;;15.63;;
19456;SDS011;9867;48.094;11.478;2022-09-01T00:27:19;17.47;;;15.87;;
19456;SDS011;9867;48.094;11.478;2022-09-01T00:29:55;17.73;;;16.13;;
19456;SDS011;9867;48.094;11.478;2022-09-01T00:32:23;18.50;;;16.80;;
19456;SDS011;9867;48.094;11.478;2022-09-01T00:34:51;17.63;;;15.93;;
19456;SDS011;9867;48.094;11.478;2022-09-01T00:37:19;15.90;;;14.53;;
19456;SDS011;9867;48.094;11.478;2022-09-01T00:39:47;19.30;;;17.60;;
19456;SDS011;9867;48.094;11.478;2022-09-01T00:42:15;17.00;;;15.50;;
19456;SDS011;9867;48.094;11.478;2022-09-01T00:44:45;17.40;;;15.70;;
19456;SDS011;9867;48.094;11.478;2022-09-01T00:47:13;18.43;;;16.67;;
19456;SDS011;9867;48.094;11.478;2022-09-01T00:49:43;17.30;;;15.63;;
19456;SDS011;9867;48.094;11.478;2022-09-01T00:52:14;18.77;;;17.07;;
19456;SDS011;9867;48.094;11.478;2022-09-01T00:54:47;19.43;;;17.67;;
19456;SDS011;9867;48.094;11.478;2022-09-01T00:57:18;18.27;;;16.77;;
19456;SDS011;9867;48.094;11.478;2022-09-01T00:59:49;19.40;;;17.70;;
19456;SDS011;9867;48.094;11.478;2022-09-01T01:02:21;21.23;;;19.33;;
19456;SDS011;9867;48.094;11.478;2022-09-01T01:04:49;21.47;;;19.60;;
19456;SDS011;9867;48.094;11.478;2022-09-01T01:07:18;17.83;;;16.23;;
19456;SDS011;9867;48.094;11.478;2022-09-01T01:09:49;19.63;;;17.73;;
19456;SDS011;9867;48.094;11.478;2022-09-01T01:12:17;23.93;;;21.73;;
19456;SDS011;9867;48.094;11.478;2022-09-01T01:14:48;19.60;;;17.83;;
19456;SDS011;9867;48.094;11.478;2022-09-01T01:17:18;22.57;;;20.40;;
19456;SDS011;9867;48.094;11.478;2022-09-01T01:19:49;20.93;;;19.13;;
19456;SDS011;9867;48.094;11.478;2022-09-01T01:22:40;22.20;;;20.20;;
19456;SDS011;9867;48.094;11.478;2022-09-01T01:25:36;22.97;;;20.77;;
19456;SDS011;9867;48.094;11.478;2022-09-01T01:28:08;23.50;;;21.37;;
19456;SDS011;9867;48.094;11.478;2022-09-01T01:30:42;26.07;;;23.80;;
19456;SDS011;9867;48.094;11.478;2022-09-01T01:33:17;21.43;;;19.53;;
19456;SDS011;9867;48.094;11.478;2022-09-01T01:35:49;22.67;;;20.67;;
19456;SDS011;9867;48.094;11.478;2022-09-01T01:38:18;23.00;;;20.93;;
19456;SDS011;9867;48.094;11.478;2022-09-01T01:40:51;22.50;;;20.37;;
19456;SDS011;9867;48.094;11.478;2022-09-01T01:43:21;23.10;;;20.90;;
19456;SDS011;9867;48.094;11.478;2022-09-01T01:45:49;23.77;;;21.47;;
19456;SDS011;9867;48.094;11.478;2022-09-01T01:48:24;26.53;;;23.80;;
19456;SDS011;9867;48.094;11.478;2022-09-01T01:50:52;24.30;;;21.80;;
19456;SDS011;9867;48.094;11.478;2022-09-01T01:53:23;28.27;;;25.57;;
19456;SDS011;9867;48.094;11.478;2022-09-01T01:55:53;26.00;;;23.53;;
19456;SDS011;9867;48.094;11.478;2022-09-01T01:58:21;26.20;;;23.50;;
19456;SDS011;9867;48.094;11.478;2022-09-01T02:00:50;22.90;;;20.70;;
19456;SDS011;9867;48.094;11.478;2022-09-01T02:03:22;24.07;;;21.87;;
19456;SDS011;9867;48.094;11.478;2022-09-01T02:05:53;25.00;;;22.70;;
19456;SDS011;9867;48.094;11.478;2022-09-01T02:08:22;25.73;;;23.37;;
19456;SDS011;9867;48.094;11.478;2022-09-01T02:10:53;25.13;;;22.80;;
19456;SDS011;9867;48.094;11.478;2022-09-01T02:13:23;26.70;;;24.30;;
19456;SDS011;9867;48.094;11.478;2022-09-01T02:15:58;26.70;;;24.10;;
19456;SDS011;9867;48.094;11.478;2022-09-01T02:18:29;23.73;;;21.53;;
19456;SDS011;9867;48.094;11.478;2022-09-01T02:21:01;22.10;;;20.00;;
19456;SDS011;9867;48.094;11.478;2022-09-01T02:23:43;25.90;;;23.50;;
19456;SDS011;9867;48.094;11.478;2022-09-01T02:26:13;23.03;;;20.83;;
19456;SDS011;9867;48.094;11.478;2022-09-01T02:28:47;22.70;;;20.63;;
19456;SDS011;9867;48.094;11.478;2022-09-01T02:31:25;25.40;;;23.03;;
19456;SDS011;9867;48.094;11.478;2022-09-01T02:33:57;22.97;;;20.70;;
19456;SDS011;9867;48.094;11.478;2022-09-01T02:36:27;24.07;;;21.67;;
19456;SDS011;9867;48.094;11.478;2022-09-01T02:39:01;24.33;;;22.03;;
19456;SDS011;9867;48.094;11.478;2022-09-01T02:41:30;22.37;;;20.17;;
19456;SDS011;9867;48.094;11.478;2022-09-01T02:44:00;22.80;;;20.60;;
19456;SDS011;9867;48.094;11.478;2022-09-01T02:46:30;21.37;;;19.37;;
19456;SDS011;9867;48.094;11.478;2022-09-01T02:48:58;22.43;;;20.43;;
19456;SDS011;9867;48.094;11.478;2022-09-01T02:51:26;22.73;;;20.43;;
19456;SDS011;9867;48.094;11.478;2022-09-01T02:53:55;20.93;;;19.13;;
19456;SDS011;9867;48.094;11.478;2022-09-01T02:56:24;21.67;;;19.80;;
19456;SDS011;9867;48.094;11.478;2022-09-01T02:58:54;19.40;;;17.50;;
19456;SDS011;9867;48.094;11.478;2022-09-01T03:01:24;19.70;;;17.90;;
19456;SDS011;9867;48.094;11.478;2022-09-01T03:03:57;20.03;;;18.23;;
19456;SDS011;9867;48.094;11.478;2022-09-01T03:06:26;19.20;;;17.50;;
19456;SDS011;9867;48.094;11.478;2022-09-01T03:08:56;20.10;;;18.40;;
19456;SDS011;9867;48.094;11.478;2022-09-01T03:11:26;18.53;;;16.73;;
19456;SDS011;9867;48.094;11.478;2022-09-01T03:13:58;20.13;;;18.23;;
19456;SDS011;9867;48.094;11.478;2022-09-01T03:16:27;18.77;;;17.17;;
19456;SDS011;9867;48.094;11.478;2022-09-01T03:18:56;18.87;;;17.20;;
19456;SDS011;9867;48.094;11.478;2022-09-01T03:21:25;18.77;;;16.90;;
19456;SDS011;9867;48.094;11.478;2022-09-01T03:23:53;19.43;;;17.73;;
19456;SDS011;9867;48.094;11.478;2022-09-01T03:26:23;20.50;;;18.50;;
19456;SDS011;9867;48.094;11.478;2022-09-01T03:28:52;18.27;;;16.50;;
19456;SDS011;9867;48.094;11.478;2022-09-01T03:31:22;18.67;;;16.97;;
19456;SDS011;9867;48.094;11.478;2022-09-01T03:33:58;20.73;;;18.50;;
19456;SDS011;9867;48.094;11.478;2022-09-01T03:36:31;19.00;;;17.40;;
19456;SDS011;9867;48.094;11.478;2022-09-01T03:39:00;20.23;;;18.30;;
19456;SDS011;9867;48.094;11.478;2022-09-01T03:41:30;18.77;;;17.03;;
19456;SDS011;9867;48.094;11.478;2022-09-01T03:43:58;20.63;;;18.60;;
19456;SDS011;9867;48.094;11.478;2022-09-01T03:46:31;17.73;;;16.13;;
19456;SDS011;9867;48.094;11.478;2022-09-01T03:49:03;18.83;;;17.00;;
19456;SDS011;9867;48.094;11.478;2022-09-01T03:51:35;18.90;;;17.10;;
19456;SDS011;9867;48.094;11.478;2022-09-01T03:54:06;20.80;;;18.90;;
19456;SDS011;9867;48.094;11.478;2022-09-01T03:56:34;18.93;;;17.03;;
19456;SDS011;9867;48.094;11.478;2022-09-01T03:59:09;18.00;;;16.20;;
19456;SDS011;9867;48.094;11.478;2022-09-01T04:01:44;17.60;;;15.90;;
19456;SDS011;9867;48.094;11.478;2022-09-01T04:04:14;18.77;;;17.07;;
19456;SDS011;9867;48.094;11.478;2022-09-01T04:06:42;19.90;;;18.00;;
19456;SDS011;9867;48.094;11.478;2022-09-01T04:09:12;19.87;;;18.00;;
19456;SDS011;9867;48.094;11.478;2022-09-01T04:11:42;20.10;;;18.03;;
19456;SDS011;9867;48.094;11.478;2022-09-01T04:14:13;20.40;;;18.60;;
19456;SDS011;9867;48.094;11.478;2022-09-01T04:16:44;18.90;;;16.97;;
19456;SDS011;9867;48.094;11.478;2022-09-01T04:19:32;19.67;;;17.57;;
19456;SDS011;9867;48.094;11.478;2022-09-01T04:22:02;19.30;;;17.60;;
19456;SDS011;9867;48.094;11.478;2022-09-01T04:24:42;18.43;;;16.77;;
19456;SDS011;9867;48.094;11.478;2022-09-01T04:27:12;16.97;;;15.47;;
19456;SDS011;9867;48.094;11.478;2022-09-01T04:29:43;19.33;;;17.63;;
19456;SDS011;9867;48.094;11.478;2022-09-01T04:32:13;18.80;;;17.20;;
19456;SDS011;9867;48.094;11.478;2022-09-01T04:34:45;19.97;;;18.07;;
19456;SDS011;9867;48.094;11.478;2022-09-01T04:37:15;18.67;;;16.87;;
19456;SDS011;9867;48.094;11.478;2022-09-01T04:39:54;18.87;;;17.20;;
19456;SDS011;9867;48.094;11.478;2022-09-01T04:42:24;18.13;;;16.43;;
19456;SDS011;9867;48.094;11.478;2022-09-01T04:44:55;21.50;;;19.50;;
19456;SDS011;9867;48.094;11.478;2022-09-01T04:47:30;19.77;;;18.07;;
19456;SDS011;9867;48.094;11.478;2022-09-01T04:50:04;17.23;;;15.70;;
19456;SDS011;9867;48.094;11.478;2022-09-01T04:52:42;17.53;;;15.83;;
19456;SDS011;9867;48.094;11.478;2022-09-01T04:55:23;20.30;;;18.40;;
19456;SDS011;9867;48.094;11.478;2022-09-01T04:57:55;19.47;;;17.70;;
19456;SDS011;9867;48.094;11.478;2022-09-01T05:00:25;17.17;;;15.53;;
19456;SDS011;9867;48.094;11.478;2022-09-01T05:03:01;18.30;;;16.50;;
19456;SDS011;9867;48.094;11.478;2022-09-01T05:05:51;18.30;;;16.60;;
19456;SDS011;9867;48.094;11.478;2022-09-01T05:08:20;20.07;;;18.20;;
19456;SDS011;9867;48.094;11.478;2022-09-01T05:10:53;18.97;;;17.37;;
19456;SDS011;9867;48.094;11.478;2022-09-01T05:13:36;16.80;;;15.27;;
19456;SDS011;9867;48.094;11.478;2022-09-01T05:16:07;18.17;;;16.43;;
19456;SDS011;9867;48.094;11.478;2022-09-01T05:18:41;17.60;;;15.80;;
19456;SDS011;9867;48.094;11.478;2022-09-01T05:21:13;20.00;;;18.20;;
19456;SDS011;9867;48.094;11.478;2022-09-01T05:23:44;18.37;;;16.77;;
19456;SDS011;9867;48.094;11.478;2022-09-01T05:26:13;17.87;;;16.33;;
19456;SDS011;9867;48.094;11.478;2022-09-01T05:28:46;18.53;;;16.83;;
19456;SDS011;9867;48.094;11.478;2022-09-01T05:31:16;17.87;;;16.30;;
19456;SDS011;9867;48.094;11.478;2022-09-01T05:33:46;17.90;;;16.20;;
19456;SDS011;9867;48.094;11.478;2022-09-01T05:36:18;19.30;;;17.57;;
19456;SDS011;9867;48.094;11.478;2022-09-01T05:38:49;17.40;;;15.90;;
19456;SDS011;9867;48.094;11.478;2022-09-01T05:41:19;18.00;;;16.30;;
19456;SDS011;9867;48.094;11.478;2022-09-01T05:43:49;18.63;;;16.93;;
19456;SDS011;9867;48.094;11.478;2022-09-01T05:46:25;19.37;;;17.60;;
19456;SDS011;9867;48.094;11.478;2022-09-01T05:48:56;15.97;;;14.57;;
19456;SDS011;9867;48.094;11.478;2022-09-01T05:51:25;18.23;;;16.40;;
19456;SDS011;9867;48.094;11.478;2022-09-01T05:54:15;15.87;;;14.53;;
19456;SDS011;9867;48.094;11.478;2022-09-01T05:56:46;17.93;;;16.23;;
19456;SDS011;9867;48.094;11.478;2022-09-01T05:59:20;18.30;;;15.97;;
19456;SDS011;9867;48.094;11.478;2022-09-01T06:01:55;17.10;;;15.40;;
19456;SDS011;9867;48.094;11.478;2022-09-01T06:04:26;16.60;;;15.20;;
19456;SDS011;9867;48.094;11.478;2022-09-01T06:07:00;15.10;;;13.73;;
19456;SDS011;9867;48.094;11.478;2022-09-01T06:09:37;15.43;;;14.00;;
19456;SDS011;9867;48.094;11.478;2022-09-01T06:12:07;15.63;;;14.33;;
19456;SDS011;9867;48.094;11.478;2022-09-01T06:14:43;14.57;;;13.17;;
19456;SDS011;9867;48.094;11.478;2022-09-01T06:17:14;13.30;;;12.00;;
19456;SDS011;9867;48.094;11.478;2022-09-01T06:19:46;13.50;;;12.40;;
19456;SDS011;9867;48.094;11.478;2022-09-01T06:22:14;13.00;;;11.83;;
19456;SDS011;9867;48.094;11.478;2022-09-01T06:24:42;12.87;;;11.63;;
19456;SDS011;9867;48.094;11.478;2022-09-01T06:27:17;11.70;;;10.70;;
19456;SDS011;9867;48.094;11.478;2022-09-01T06:29:46;11.97;;;10.93;;
19456;SDS011;9867;48.094;11.478;2022-09-01T06:32:19;12.97;;;11.87;;
19456;SDS011;9867;48.094;11.478;2022-09-01T06:34:48;12.53;;;11.33;;
19456;SDS011;9867;48.094;11.478;2022-09-01T06:37:17;12.70;;;11.50;;
19456;SDS011;9867;48.094;11.478;2022-09-01T06:39:51;12.97;;;11.67;;
19456;SDS011;9867;48.094;11.478;2022-09-01T06:42:21;12.70;;;11.63;;
19456;SDS011;9867;48.094;11.478;2022-09-01T06:44:55;13.30;;;12.10;;
19456;SDS011;9867;48.094;11.478;2022-09-01T06:47:23;11.40;;;10.40;;
19456;SDS011;9867;48.094;11.478;2022-09-01T06:49:55;12.13;;;10.97;;
19456;SDS011;9867;48.094;11.478;2022-09-01T06:52:25;12.00;;;10.80;;
19456;SDS011;9867;48.094;11.478;2022-09-01T06:54:54;10.97;;;10.00;;
19456;SDS011;9867;48.094;11.478;2022-09-01T06:57:23;11.17;;;10.23;;
19456;SDS011;9867;48.094;11.478;2022-09-01T07:00:14;11.30;;;10.20;;
19456;SDS011;9867;48.094;11.478;2022-09-01T07:02:47;10.17;;;9.37;;
19456;SDS011;9867;48.094;11.478;2022-09-01T07:05:44;10.27;;;9.37;;
19456;SDS011;9867;48.094;11.478;2022-09-01T07:08:50;10.30;;;9.50;;
19456;SDS011;9867;48.094;11.478;2022-09-01T07:11:45;9.93;;;9.13;;
19456;SDS011;9867;48.094;11.478;2022-09-01T07:14:34;9.90;;;9.10;;
19456;SDS011;9867;48.094;11.478;2022-09-01T07:17:22;10.07;;;9.20;;
19456;SDS011;9867;48.094;11.478;2022-09-01T07:19:52;9.73;;;8.73;;
19456;SDS011;9867;48.094;11.478;2022-09-01T07:22:24;9.67;;;8.77;;
19456;SDS011;9867;48.094;11.478;2022-09-01T07:25:12;9.67;;;8.83;;
19456;SDS011;9867;48.094;11.478;2022-09-01T07:28:01;9.53;;;8.53;;
19456;SDS011;9867;48.094;11.478;2022-09-01T07:30:29;9.43;;;8.73;;
19456;SDS011;9867;48.094;11.478;2022-09-01T07:32:58;10.43;;;9.53;;
19456;SDS011;9867;48.094;11.478;2022-09-01T07:35:46;9.80;;;9.00;;
19456;SDS011;9867;48.094;11.478;2022-09-01T07:38:36;9.00;;;8.30;;
19456;SDS011;9867;48.094;11.478;2022-09-01T07:41:24;9.83;;;9.03;;
19456;SDS011;9867;48.094;11.478;2022-09-01T07:44:45;9.20;;;8.50;;
19456;SDS011;9867;48.094;11.478;2022-09-01T07:47:31;8.60;;;7.90;;
19456;SDS011;9867;48.094;11.478;2022-09-01T07:50:20;8.27;;;7.67;;
19456;SDS011;9867;48.094;11.478;2022-09-01T07:53:10;9.60;;;7.03;;
19456;SDS011;9867;48.094;11.478;2022-09-01T07:55:40;7.80;;;7.10;;
19456;SDS011;9867;48.094;11.478;2022-09-01T07:58:09;8.47;;;7.77;;
19456;SDS011;9867;48.094;11.478;2022-09-01T08:00:41;7.87;;;7.10;;
19456;SDS011;9867;48.094;11.478;2022-09-01T08:03:12;7.70;;;6.97;;
19456;SDS011;9867;48.094;11.478;2022-09-01T08:05:41;7.73;;;7.03;;
19456;SDS011;9867;48.094;11.478;2022-09-01T08:08:09;7.63;;;7.03;;
19456;SDS011;9867;48.094;11.478;2022-09-01T08:10:48;7.47;;;6.77;;
19456;SDS011;9867;48.094;11.478;2022-09-01T08:13:17;8.57;;;7.73;;
19456;SDS011;9867;48.094;11.478;2022-09-01T08:15:48;8.73;;;6.80;;
19456;SDS011;9867;48.094;11.478;2022-09-01T08:18:34;7.87;;;6.50;;
19456;SDS011;9867;48.094;11.478;2022-09-01T08:21:25;7.53;;;6.90;;
19456;SDS011;9867;48.094;11.478;2022-09-01T08:23:57;7.00;;;6.50;;
19456;SDS011;9867;48.094;11.478;2022-09-01T08:26:27;6.37;;;5.87;;
19456;SDS011;9867;48.094;11.478;2022-09-01T08:28:55;6.83;;;6.33;;
19456;SDS011;9867;48.094;11.478;2022-09-01T08:31:29;7.47;;;6.73;;
19456;SDS011;9867;48.094;11.478;2022-09-01T08:33:59;7.53;;;6.93;;
19456;SDS011;9867;48.094;11.478;2022-09-01T08:36:27;7.30;;;6.70;;
19456;SDS011;9867;48.094;11.478;2022-09-01T08:38:55;7.40;;;6.80;;
19456;SDS011;9867;48.094;11.478;2022-09-01T08:41:29;7.60;;;6.40;;
19456;SDS011;9867;48.094;11.478;2022-09-01T08:44:18;8.17;;;6.23;;
19456;SDS011;9867;48.094;11.478;2022-09-01T08:46:56;6.80;;;6.20;;
19456;SDS011;9867;48.094;11.478;2022-09-01T08:49:29;7.00;;;6.40;;
19456;SDS011;9867;48.094;11.478;2022-09-01T08:52:10;6.97;;;6.43;;
19456;SDS011;9867;48.094;11.478;2022-09-01T08:54:48;6.63;;;6.07;;
19456;SDS011;9867;48.094;11.478;2022-09-01T08:57:22;6.50;;;5.90;;
19456;SDS011;9867;48.094;11.478;2022-09-01T09:00:15;6.20;;;5.70;;
19456;SDS011;9867;48.094;11.478;2022-09-01T09:02:50;6.60;;;6.00;;
19456;SDS011;9867;48.094;11.478;2022-09-01T09:05:30;6.07;;;5.33;;
19456;SDS011;9867;48.094;11.478;2022-09-01T09:11:00;6.23;;;5.50;;
19456;SDS011;9867;48.094;11.478;2022-09-01T09:13:37;5.60;;;5.10;;
19456;SDS011;9867;48.094;11.478;2022-09-01T09:16:20;5.80;;;5.30;;
19456;SDS011;9867;48.094;11.478;2022-09-01T09:18:51;6.60;;;5.13;;
19456;SDS011;9867;48.094;11.478;2022-09-01T09:21:23;5.10;;;4.70;;
19456;SDS011;9867;48.094;11.478;2022-09-01T09:23:57;5.10;;;4.63;;
19456;SDS011;9867;48.094;11.478;2022-09-01T09:26:30;5.33;;;4.83;;
19456;SDS011;9867;48.094;11.478;2022-09-01T09:29:15;5.63;;;5.10;;
19456;SDS011;9867;48.094;11.478;2022-09-01T09:31:46;7.13;;;4.90;;
19456;SDS011;9867;48.094;11.478;2022-09-01T09:34:17;5.17;;;4.77;;
19456;SDS011;9867;48.094;11.478;2022-09-01T09:36:59;6.03;;;4.87;;
19456;SDS011;9867;48.094;11.478;2022-09-01T09:39:42;5.57;;;4.70;;
19456;SDS011;9867;48.094;11.478;2022-09-01T09:42:11;6.23;;;5.10;;
19456;SDS011;9867;48.094;11.478;2022-09-01T09:44:43;5.30;;;4.60;;
19456;SDS011;9867;48.094;11.478;2022-09-01T09:50:14;6.27;;;4.77;;
19456;SDS011;9867;48.094;11.478;2022-09-01T09:52:46;5.20;;;4.70;;
19456;SDS011;9867;48.094;11.478;2022-09-01T09:55:22;7.10;;;4.97;;
19456;SDS011;9867;48.094;11.478;2022-09-01T09:57:53;5.50;;;5.00;;
19456;SDS011;9867;48.094;11.478;2022-09-01T10:00:26;6.17;;;4.40;;
19456;SDS011;9867;48.094;11.478;2022-09-01T10:02:58;4.93;;;4.53;;
19456;SDS011;9867;48.094;11.478;2022-09-01T10:05:37;4.77;;;4.43;;
19456;SDS011;9867;48.094;11.478;2022-09-01T10:08:09;4.90;;;4.50;;
19456;SDS011;9867;48.094;11.478;2022-09-01T10:10:42;5.23;;;4.83;;
19456;SDS011;9867;48.094;11.478;2022-09-01T10:13:24;5.60;;;5.07;;
19456;SDS011;9867;48.094;11.478;2022-09-01T10:15:59;6.90;;;5.30;;
19456;SDS011;9867;48.094;11.478;2022-09-01T10:18:34;5.60;;;5.10;;
19456;SDS011;9867;48.094;11.478;2022-09-01T10:21:08;6.27;;;5.77;;
19456;SDS011;9867;48.094;11.478;2022-09-01T10:23:41;5.63;;;5.13;;
19456;SDS011;9867;48.094;11.478;2022-09-01T10:26:10;5.03;;;4.57;;
19456;SDS011;9867;48.094;11.478;2022-09-01T10:28:45;4.97;;;4.40;;
19456;SDS011;9867;48.094;11.478;2022-09-01T10:31:18;4.30;;;3.90;;
19456;SDS011;9867;48.094;11.478;2022-09-01T10:33:48;4.30;;;4.00;;
19456;SDS011;9867;48.094;11.478;2022-09-01T10:36:16;4.80;;;4.40;;
19456;SDS011;9867;48.094;11.478;2022-09-01T10:38:50;4.67;;;4.27;;
19456;SDS011;9867;48.094;11.478;2022-09-01T10:44:33;7.00;;;4.73;;
19456;SDS011;9867;48.094;11.478;2022-09-01T10:47:09;4.70;;;4.30;;
19456;SDS011;9867;48.094;11.478;2022-09-01T10:55:31;5.30;;;4.80;;
19456;SDS011;9867;48.094;11.478;2022-09-01T10:58:16;4.27;;;3.97;;
19456;SDS011;9867;48.094;11.478;2022-09-01T11:05:11;4.40;;;4.00;;
19456;SDS011;9867;48.094;11.478;2022-09-01T11:07:42;4.30;;;4.00;;
19456;SDS011;9867;48.094;11.478;2022-09-01T11:10:40;4.40;;;4.00;;
19456;SDS011;9867;48.094;11.478;2022-09-01T11:13:24;4.80;;;4.40;;
19456;SDS011;9867;48.094;11.478;2022-09-01T11:22:10;4.07;;;3.67;;
19456;SDS011;9867;48.094;11.478;2022-09-01T11:25:11;4.00;;;3.70;;
19456;SDS011;9867;48.094;11.478;2022-09-01T11:28:09;3.27;;;3.00;;
19456;SDS011;9867;48.094;11.478;2022-09-01T11:31:19;3.20;;;2.90;;
19456;SDS011;9867;48.094;11.478;2022-09-01T11:33:55;3.17;;;2.80;;
19456;SDS011;9867;48.094;11.478;2022-09-01T11:36:30;3.03;;;2.70;;
19456;SDS011;9867;48.094;11.478;2022-09-01T11:39:05;2.80;;;2.53;;
19456;SDS011;9867;48.094;11.478;2022-09-01T11:41:45;3.57;;;2.50;;
19456;SDS011;9867;48.094;11.478;2022-09-01T11:44:26;2.40;;;2.20;;
19456;SDS011;9867;48.094;11.478;2022-09-01T11:47:04;2.50;;;2.30;;
19456;SDS011;9867;48.094;11.478;2022-09-01T11:49:45;3.23;;;2.67;;
19456;SDS011;9867;48.094;11.478;2022-09-01T11:52:33;3.07;;;2.50;;
19456;SDS011;9867;48.094;11.478;2022-09-01T11:55:05;2.90;;;2.70;;
19456;SDS011;9867;48.094;11.478;2022-09-01T11:57:35;3.07;;;2.77;;
19456;SDS011;9867;48.094;11.478;2022-09-01T12:00:07;3.63;;;3.10;;
19456;SDS011;9867;48.094;11.478;2022-09-01T12:02:42;3.33;;;3.07;;
19456;SDS011;9867;48.094;11.478;2022-09-01T12:05:22;4.90;;;3.20;;
19456;SDS011;9867;48.094;11.478;2022-09-01T12:07:54;3.10;;;2.80;;
19456;SDS011;9867;48.094;11.478;2022-09-01T12:10:30;6.60;;;2.83;;
19456;SDS011;9867;48.094;11.478;2022-09-01T12:13:04;2.77;;;2.57;;
19456;SDS011;9867;48.094;11.478;2022-09-01T12:15:34;2.60;;;2.40;;
19456;SDS011;9867;48.094;11.478;2022-09-01T12:18:28;2.47;;;2.27;;
19456;SDS011;9867;48.094;11.478;2022-09-01T12:20:58;2.47;;;2.27;;
19456;SDS011;9867;48.094;11.478;2022-09-01T12:23:30;4.03;;;2.50;;
19456;SDS011;9867;48.094;11.478;2022-09-01T12:26:02;2.33;;;1.97;;
19456;SDS011;9867;48.094;11.478;2022-09-01T12:28:33;4.63;;;2.13;;
19456;SDS011;9867;48.094;11.478;2022-09-01T12:31:11;2.90;;;2.10;;
19456;SDS011;9867;48.094;11.478;2022-09-01T12:33:41;3.93;;;2.07;;
19456;SDS011;9867;48.094;11.478;2022-09-01T12:36:12;2.23;;;2.13;;
19456;SDS011;9867;48.094;11.478;2022-09-01T12:38:40;4.23;;;2.30;;
19456;SDS011;9867;48.094;11.478;2022-09-01T12:41:23;3.13;;;2.10;;
19456;SDS011;9867;48.094;11.478;2022-09-01T12:43:54;2.50;;;2.10;;
19456;SDS011;9867;48.094;11.478;2022-09-01T12:46:43;2.53;;;2.10;;
19456;SDS011;9867;48.094;11.478;2022-09-01T12:49:15;3.30;;;2.00;;
19456;SDS011;9867;48.094;11.478;2022-09-01T12:51:45;3.63;;;2.17;;
19456;SDS011;9867;48.094;11.478;2022-09-01T12:54:14;2.00;;;1.90;;
19456;SDS011;9867;48.094;11.478;2022-09-01T12:56:47;1.97;;;1.87;;
19456;SDS011;9867;48.094;11.478;2022-09-01T12:59:20;2.37;;;2.17;;
19456;SDS011;9867;48.094;11.478;2022-09-01T13:07:58;4.93;;;2.20;;
19456;SDS011;9867;48.094;11.478;2022-09-01T13:10:30;3.53;;;2.13;;
19456;SDS011;9867;48.094;11.478;2022-09-01T13:13:01;2.10;;;1.90;;
19456;SDS011;9867;48.094;11.478;2022-09-01T13:15:29;2.63;;;2.00;;
19456;SDS011;9867;48.094;11.478;2022-09-01T13:17:57;2.37;;;2.03;;
19456;SDS011;9867;48.094;11.478;2022-09-01T13:20:25;1.97;;;1.87;;
19456;SDS011;9867;48.094;11.478;2022-09-01T13:22:53;2.70;;;2.00;;
19456;SDS011;9867;48.094;11.478;2022-09-01T13:25:21;2.53;;;1.90;;
19456;SDS011;9867;48.094;11.478;2022-09-01T13:27:50;1.80;;;1.70;;
19456;SDS011;9867;48.094;11.478;2022-09-01T13:30:22;3.63;;;2.03;;
19456;SDS011;9867;48.094;11.478;2022-09-01T13:32:53;3.57;;;2.07;;
19456;SDS011;9867;48.094;11.478;2022-09-01T13:35:46;2.97;;;2.20;;
19456;SDS011;9867;48.094;11.478;2022-09-01T13:38:22;2.80;;;2.17;;
19456;SDS011;9867;48.094;11.478;2022-09-01T13:40:50;2.37;;;1.90;;
19456;SDS011;9867;48.094;11.478;2022-09-01T13:43:19;2.30;;;2.07;;
19456;SDS011;9867;48.094;11.478;2022-09-01T13:45:52;2.93;;;2.33;;
19456;SDS011;9867;48.094;11.478;2022-09-01T13:48:25;7.10;;;2.63;;
19456;SDS011;9867;48.094;11.478;2022-09-01T13:51:22;3.97;;;2.20;;
19456;SDS011;9867;48.094;11.478;2022-09-01T13:53:51;3.03;;;2.40;;
19456;SDS011;9867;48.094;11.478;2022-09-01T13:56:19;2.50;;;2.30;;
19456;SDS011;9867;48.094;11.478;2022-09-01T13:58:48;2.73;;;2.07;;
19456;SDS011;9867;48.094;11.478;2022-09-01T14:01:17;2.13;;;1.93;;
19456;SDS011;9867;48.094;11.478;2022-09-01T14:03:45;2.70;;;2.20;;
19456;SDS011;9867;48.094;11.478;2022-09-01T14:06:17;4.83;;;2.10;;
19456;SDS011;9867;48.094;11.478;2022-09-01T14:08:46;2.67;;;2.30;;
19456;SDS011;9867;48.094;11.478;2022-09-01T14:11:18;2.77;;;2.20;;
19456;SDS011;9867;48.094;11.478;2022-09-01T14:13:46;2.70;;;2.00;;
19456;SDS011;9867;48.094;11.478;2022-09-01T14:16:14;2.40;;;2.20;;
19456;SDS011;9867;48.094;11.478;2022-09-01T14:18:43;4.47;;;2.20;;
19456;SDS011;9867;48.094;11.478;2022-09-01T14:21:12;2.50;;;2.20;;
19456;SDS011;9867;48.094;11.478;2022-09-01T14:23:42;2.00;;;1.80;;
19456;SDS011;9867;48.094;11.478;2022-09-01T14:26:12;3.73;;;1.70;;
19456;SDS011;9867;48.094;11.478;2022-09-01T14:28:42;2.10;;;1.90;;
19456;SDS011;9867;48.094;11.478;2022-09-01T14:31:13;4.33;;;1.87;;
19456;SDS011;9867;48.094;11.478;2022-09-01T14:33:44;2.97;;;2.50;;
19456;SDS011;9867;48.094;11.478;2022-09-01T14:36:15;2.00;;;1.90;;
19456;SDS011;9867;48.094;11.478;2022-09-01T14:38:45;2.30;;;2.10;;
19456;SDS011;9867;48.094;11.478;2022-09-01T14:41:14;2.60;;;2.10;;
19456;SDS011;9867;48.094;11.478;2022-09-01T14:43:47;2.83;;;1.80;;
19456;SDS011;9867;48.094;11.478;2022-09-01T14:46:15;2.87;;;2.10;;
19456;SDS011;9867;48.094;11.478;2022-09-01T14:48:47;2.60;;;2.40;;
19456;SDS011;9867;48.094;11.478;2022-09-01T14:51:20;2.63;;;1.63;;
19456;SDS011;9867;48.094;11.478;2022-09-01T14:53:50;2.40;;;2.10;;
19456;SDS011;9867;48.094;11.478;2022-09-01T14:56:19;2.27;;;1.87;;
19456;SDS011;9867;48.094;11.478;2022-09-01T14:58:47;2.03;;;1.83;;
19456;SDS011;9867;48.094;11.478;2022-09-01T15:01:17;4.83;;;2.00;;
19456;SDS011;9867;48.094;11.478;2022-09-01T15:04:01;2.40;;;2.17;;
19456;SDS011;9867;48.094;11.478;2022-09-01T15:06:29;4.33;;;2.07;;
19456;SDS011;9867;48.094;11.478;2022-09-01T15:08:59;4.17;;;2.20;;
19456;SDS011;9867;48.094;11.478;2022-09-01T15:11:28;2.07;;;1.90;;
19456;SDS011;9867;48.094;11.478;2022-09-01T15:13:56;2.73;;;2.03;;
19456;SDS011;9867;48.094;11.478;2022-09-01T15:16:25;4.60;;;2.20;;
19456;SDS011;9867;48.094;11.478;2022-09-01T15:18:53;2.30;;;1.80;;
19456;SDS011;9867;48.094;11.478;2022-09-01T15:21:24;2.77;;;2.57;;
19456;SDS011;9867;48.094;11.478;2022-09-01T15:23:57;1.83;;;1.70;;
19456;SDS011;9867;48.094;11.478;2022-09-01T15:26:26;2.63;;;1.57;;
19456;SDS011;9867;48.094;11.478;2022-09-01T15:28:55;1.90;;;1.70;;
19456;SDS011;9867;48.094;11.478;2022-09-01T15:31:24;2.80;;;1.70;;
19456;SDS011;9867;48.094;11.478;2022-09-01T15:33:59;2.47;;;1.30;;
19456;SDS011;9867;48.094;11.478;2022-09-01T15:36:29;1.83;;;1.67;;
19456;SDS011;9867;48.094;11.478;2022-09-01T15:38:58;1.60;;;1.50;;
19456;SDS011;9867;48.094;11.478;2022-09-01T15:41:27;1.60;;;1.50;;
19456;SDS011;9867;48.094;11.478;2022-09-01T15:43:57;2.07;;;1.67;;
19456;SDS011;9867;48.094;11.478;2022-09-01T15:46:25;1.50;;;1.40;;